Time;durP1;ratioP1;P1;durP2;ratioP2;P2;SDS_P1;SDS_P2;PMS_P1;PMS_P2;Temp;Humidity;BMP_temperature;BMP_pressure;BME280_temperature;BME280_humidity;BME280_pressure;Samples;Min_cycle;Max_cycle;Signal;HPM_P1;HPM_P2
2021/12/15 00:00:51;;;;;;;5.05;3.20;;;16.10;92.00;;;;;;1982714;28;20274;-75
2021/12/15 00:01:53;;;;;;;6.30;3.63;;;16.10;92.20;;;;;;1982697;29;20211;-75
2021/12/15 00:02:53;;;;;;;7.10;4.45;;;16.10;92.10;;;;;;1982069;29;20270;-75
2021/12/15 00:03:53;;;;;;;5.82;4.03;;;16.30;92.10;;;;;;1982039;29;20198;-75
2021/12/15 00:04:54;;;;;;;5.32;4.32;;;16.10;92.00;;;;;;1982643;29;20179;-74
2021/12/15 00:05:54;;;;;;;6.15;4.32;;;16.10;92.00;;;;;;1982693;29;20175;-75
2021/12/15 00:06:52;;;;;;;5.88;3.85;;;16.10;91.80;;;;;;1982695;28;20670;-75
2021/12/15 00:07:54;;;;;;;5.07;3.70;;;16.10;91.90;;;;;;1982657;28;20198;-75
2021/12/15 00:08:55;;;;;;;6.68;4.10;;;16.10;91.90;;;;;;1982634;28;20171;-75
2021/12/15 00:09:55;;;;;;;5.30;4.20;;;16.10;91.80;;;;;;1982645;28;20175;-75
2021/12/15 00:10:54;;;;;;;5.93;4.30;;;16.10;91.80;;;;;;1982634;28;20195;-76
2021/12/15 00:11:52;;;;;;;6.75;4.00;;;16.10;91.70;;;;;;1982655;28;20183;-76
2021/12/15 00:12:51;;;;;;;4.87;3.70;;;16.30;92.10;;;;;;1982688;29;20171;-75
2021/12/15 00:13:52;;;;;;;6.65;4.57;;;16.10;91.80;;;;;;1982669;28;20198;-75
2021/12/15 00:14:52;;;;;;;7.43;4.00;;;16.10;92.20;;;;;;1982616;28;20201;-76
2021/12/15 00:15:50;;;;;;;6.65;3.42;;;16.10;91.90;;;;;;1982806;29;20519;-76
2021/12/15 00:16:50;;;;;;;9.10;4.50;;;16.10;91.90;;;;;;1982421;29;20238;-76
2021/12/15 00:17:50;;;;;;;6.28;3.78;;;16.10;92.30;;;;;;1982618;28;20171;-75
2021/12/15 00:18:50;;;;;;;7.45;4.75;;;16.10;92.50;;;;;;1981962;29;20647;-76
2021/12/15 00:19:50;;;;;;;7.00;4.70;;;16.10;94.40;;;;;;1981982;29;20646;-76
2021/12/15 00:20:48;;;;;;;8.18;4.22;;;16.10;92.20;;;;;;1982555;29;20231;-76
2021/12/15 00:21:48;;;;;;;7.33;4.13;;;16.10;92.10;;;;;;1982429;28;20179;-76
2021/12/15 00:22:52;;;;;;;5.40;3.63;;;16.10;93.40;;;;;;1982529;29;20635;-76
2021/12/15 00:23:51;;;;;;;6.18;3.90;;;16.10;92.60;;;;;;1982700;28;20168;-76
2021/12/15 00:24:50;;;;;;;6.30;4.40;;;16.10;94.40;;;;;;1982578;28;20175;-75
2021/12/15 00:25:48;;;;;;;5.32;4.20;;;16.30;92.20;;;;;;1982590;28;20418;-76
2021/12/15 00:26:48;;;;;;;5.37;4.07;;;16.10;91.90;;;;;;1981890;29;20206;-76
2021/12/15 00:27:48;;;;;;;5.90;3.50;;;16.10;91.90;;;;;;1981967;29;20674;-76
2021/12/15 00:28:47;;;;;;;5.65;4.07;;;16.10;92.00;;;;;;1982573;29;20198;-76
2021/12/15 00:29:46;;;;;;;6.67;3.77;;;16.10;92.10;;;;;;1982526;29;20226;-76
2021/12/15 00:30:45;;;;;;;7.00;4.10;;;16.10;91.90;;;;;;1982574;29;20890;-77
2021/12/15 00:31:46;;;;;;;5.70;3.83;;;16.10;92.00;;;;;;1982512;28;20198;-76
2021/12/15 00:32:44;;;;;;;7.28;4.68;;;16.10;91.60;;;;;;1982467;28;20254;-76
2021/12/15 00:33:44;;;;;;;4.90;3.60;;;16.10;91.90;;;;;;1982545;28;20172;-76
2021/12/15 00:34:45;;;;;;;5.53;3.75;;;16.10;91.50;;;;;;1981981;29;20179;-77
2021/12/15 00:35:43;;;;;;;5.32;4.00;;;16.10;91.80;;;;;;1982006;29;20202;-76
2021/12/15 00:36:44;;;;;;;6.93;3.77;;;16.10;91.90;;;;;;1981752;29;20721;-76
2021/12/15 00:37:42;;;;;;;6.20;4.43;;;16.10;91.50;;;;;;1983048;28;20278;-76
2021/12/15 00:38:42;;;;;;;6.80;4.70;;;16.10;91.30;;;;;;1982638;28;20175;-76
2021/12/15 00:39:42;;;;;;;7.97;4.50;;;16.30;91.80;;;;;;1982605;28;20266;-76
2021/12/15 00:40:41;;;;;;;6.45;4.10;;;16.10;91.50;;;;;;1982371;28;20286;-76
2021/12/15 00:41:41;;;;;;;7.23;4.23;;;16.10;91.40;;;;;;1981887;29;20354;-76
2021/12/15 00:42:42;;;;;;;4.43;3.55;;;16.40;91.70;;;;;;1982438;29;20164;-76
2021/12/15 00:43:40;;;;;;;6.00;3.97;;;16.10;91.60;;;;;;1982383;29;20572;-75
2021/12/15 00:44:40;;;;;;;5.60;4.17;;;16.10;91.50;;;;;;1982412;28;20175;-75
2021/12/15 00:45:38;;;;;;;5.57;3.90;;;16.10;91.50;;;;;;1982746;28;20209;-76
2021/12/15 00:46:38;;;;;;;7.43;4.80;;;16.10;91.60;;;;;;1982329;28;20199;-76
2021/12/15 00:47:37;;;;;;;6.45;4.03;;;16.10;91.40;;;;;;1981701;28;20478;-77
2021/12/15 00:48:36;;;;;;;6.30;4.10;;;16.10;91.50;;;;;;1981895;29;20229;-76
2021/12/15 00:49:35;;;;;;;6.33;4.27;;;16.10;91.50;;;;;;1982337;29;20588;-76
2021/12/15 00:50:35;;;;;;;6.90;4.50;;;16.10;91.80;;;;;;1982521;28;20211;-76
2021/12/15 00:51:36;;;;;;;8.45;4.90;;;16.10;91.80;;;;;;1982474;28;20816;-75
2021/12/15 00:52:37;;;;;;;6.38;3.58;;;16.10;92.00;;;;;;1982272;28;20183;-76
2021/12/15 00:53:39;;;;;;;5.10;3.75;;;16.10;92.00;;;;;;1981794;29;20658;-75
2021/12/15 00:54:38;;;;;;;6.20;4.13;;;16.10;92.10;;;;;;1981812;29;20179;-76
2021/12/15 00:55:37;;;;;;;5.60;3.90;;;16.10;92.00;;;;;;1982512;28;20262;-76
2021/12/15 00:56:37;;;;;;;4.75;3.63;;;16.10;92.20;;;;;;1982238;29;20214;-76
2021/12/15 00:57:36;;;;;;;7.40;4.40;;;16.10;92.60;;;;;;1982142;28;20241;-75
2021/12/15 00:58:34;;;;;;;9.13;4.40;;;16.30;93.40;;;;;;1982146;28;20175;-76
2021/12/15 00:59:33;;;;;;;5.50;3.90;;;16.10;92.60;;;;;;1982373;29;20216;-76
2021/12/15 01:00:39;;;;;;;5.93;4.13;;;16.30;92.60;;;;;;1982398;28;20251;-76
2021/12/15 01:01:39;;;;;;;6.35;3.60;;;16.10;92.70;;;;;;1981624;29;20195;-75
2021/12/15 01:02:37;;;;;;;5.38;3.97;;;16.10;92.60;;;;;;1981765;29;20745;-76
2021/12/15 01:03:37;;;;;;;5.60;3.90;;;16.30;92.50;;;;;;1982072;28;20184;-76
2021/12/15 01:04:36;;;;;;;7.32;4.65;;;16.10;92.60;;;;;;1981263;29;20183;-75
2021/12/15 01:05:40;;;;;;;6.30;3.57;;;16.10;92.50;;;;;;1981961;29;20179;-75
2021/12/15 01:06:41;;;;;;;6.28;4.30;;;16.10;92.60;;;;;;1981700;29;20602;-76
2021/12/15 01:07:39;;;;;;;6.68;3.55;;;16.10;92.70;;;;;;1982288;28;20717;-75
2021/12/15 01:08:46;;;;;;;6.70;4.47;;;16.10;93.00;;;;;;1982193;29;20580;-76
2021/12/15 01:09:53;;;;;;;4.95;3.67;;;16.10;93.40;;;;;;1982457;28;20436;-76
2021/12/15 01:11:22;;;;;;;6.22;4.07;;;16.10;93.00;;;;;;1982295;29;20166;-74
2021/12/15 01:20:23;;;;;;;7.07;4.40;;;16.00;94.10;;;;;;1982079;29;20639;-76
2021/12/15 01:21:21;;;;;;;5.70;4.22;;;16.00;94.20;;;;;;1982237;28;20556;-76
2021/12/15 01:22:25;;;;;;;6.40;4.47;;;16.00;92.90;;;;;;1982133;29;20182;-76
2021/12/15 01:23:26;;;;;;;5.65;4.18;;;16.10;92.80;;;;;;1982413;28;20525;-76
2021/12/15 01:24:26;;;;;;;6.43;4.20;;;16.10;92.70;;;;;;1982201;28;20178;-76
2021/12/15 01:25:35;;;;;;;7.15;4.30;;;16.10;92.60;;;;;;1982109;28;20190;-76
2021/12/15 01:26:34;;;;;;;7.85;4.53;;;16.10;92.60;;;;;;1982076;28;20195;-76
2021/12/15 01:27:33;;;;;;;6.17;4.10;;;16.10;92.60;;;;;;1982089;29;20171;-76
2021/12/15 01:28:32;;;;;;;4.78;3.70;;;16.10;92.60;;;;;;1982210;28;20163;-76
2021/12/15 01:29:31;;;;;;;6.70;4.60;;;16.10;92.50;;;;;;1981836;29;20210;-76
2021/12/15 01:30:34;;;;;;;4.73;3.70;;;16.10;92.60;;;;;;1982207;28;20766;-76
2021/12/15 01:31:34;;;;;;;5.60;4.28;;;16.10;92.60;;;;;;1982182;28;20175;-76
2021/12/15 01:32:32;;;;;;;5.43;4.10;;;16.10;92.60;;;;;;1982163;29;20224;-76
2021/12/15 01:33:32;;;;;;;4.60;3.67;;;16.10;92.60;;;;;;1982226;28;20171;-76
2021/12/15 01:34:31;;;;;;;7.15;4.30;;;16.10;92.50;;;;;;1982180;28;20203;-76
2021/12/15 01:35:32;;;;;;;4.67;3.80;;;16.10;92.40;;;;;;1982731;28;20212;-76
2021/12/15 01:36:32;;;;;;;6.55;4.82;;;16.10;92.50;;;;;;1983153;28;20183;-76
2021/12/15 01:37:30;;;;;;;6.05;3.85;;;16.10;92.40;;;;;;1981825;29;20288;-75
2021/12/15 01:38:32;;;;;;;4.83;3.87;;;16.10;92.40;;;;;;1981770;29;20221;-75
2021/12/15 01:39:30;;;;;;;6.65;4.05;;;16.10;92.40;;;;;;1982530;29;20234;-76
2021/12/15 01:40:35;;;;;;;6.50;4.80;;;16.10;92.30;;;;;;1982343;29;20179;-76
2021/12/15 01:41:34;;;;;;;6.47;3.70;;;16.10;92.40;;;;;;1981778;28;20163;-76
2021/12/15 01:42:35;;;;;;;5.07;4.33;;;16.10;92.50;;;;;;1981973;29;20219;-76
2021/12/15 01:46:51;;;;;;;5.75;3.72;;;16.00;92.40;;;;;;1981539;28;20600;-76
2021/12/15 01:47:37;;;;;;;5.32;3.70;;;16.00;92.40;;;;;;1984214;29;20611;-76
2021/12/15 01:48:37;;;;;;;6.72;4.55;;;16.00;92.50;;;;;;1981991;28;20615;-76
2021/12/15 01:49:41;;;;;;;5.00;3.90;;;16.00;92.40;;;;;;1982014;28;20186;-76
2021/12/15 01:50:41;;;;;;;5.43;3.83;;;16.10;92.40;;;;;;1982129;28;20155;-76
2021/12/15 01:51:42;;;;;;;5.05;3.65;;;16.10;92.40;;;;;;1981869;28;20183;-76
2021/12/15 01:52:41;;;;;;;7.35;4.35;;;16.10;92.50;;;;;;1982029;28;20167;-76
2021/12/15 01:53:40;;;;;;;5.43;3.92;;;16.00;92.50;;;;;;1981991;29;20183;-76
2021/12/15 01:54:44;;;;;;;6.40;4.73;;;16.10;93.80;;;;;;1981919;29;20582;-76
2021/12/15 01:55:44;;;;;;;6.65;4.57;;;16.10;92.90;;;;;;1981413;29;20176;-76
2021/12/15 01:56:44;;;;;;;4.80;3.90;;;16.00;90.90;;;;;;1981281;29;20223;-76
2021/12/15 01:57:44;;;;;;;6.32;4.05;;;16.10;90.50;;;;;;1982017;29;20650;-76
2021/12/15 01:58:42;;;;;;;5.20;3.47;;;16.20;90.40;;;;;;1981882;29;20705;-76
2021/12/15 01:59:43;;;;;;;5.50;4.00;;;16.10;90.20;;;;;;1981384;29;20274;-76
2021/12/15 02:00:52;;;;;;;5.05;3.75;;;16.10;90.20;;;;;;1981163;28;20572;-75
2021/12/15 02:01:51;;;;;;;5.50;3.97;;;16.20;90.20;;;;;;1981592;29;20191;-75
2021/12/15 02:02:52;;;;;;;5.63;4.10;;;16.00;90.00;;;;;;1981144;29;20183;-76
2021/12/15 02:03:51;;;;;;;6.90;4.00;;;16.10;90.20;;;;;;1981871;28;20175;-76
2021/12/15 02:04:52;;;;;;;5.17;4.07;;;16.10;90.10;;;;;;1981859;28;20206;-76
2021/12/15 02:05:50;;;;;;;5.20;3.78;;;16.10;90.10;;;;;;1981847;28;20175;-77
2021/12/15 02:06:49;;;;;;;5.83;3.93;;;16.00;90.10;;;;;;1981736;29;20286;-75
2021/12/15 02:07:48;;;;;;;8.65;4.43;;;16.00;90.10;;;;;;1981855;28;20190;-75
2021/12/15 02:08:48;;;;;;;4.50;3.30;;;16.10;90.10;;;;;;1981934;28;20682;-75
2021/12/15 02:10:51;;;;;;;5.97;3.95;;;16.20;90.10;;;;;;1982016;28;20163;-76
2021/12/15 02:11:49;;;;;;;5.47;3.63;;;16.20;90.00;;;;;;1981772;28;20179;-75
2021/12/15 02:12:48;;;;;;;8.97;4.60;;;16.10;90.00;;;;;;1981873;29;20579;-76
2021/12/15 02:13:47;;;;;;;4.80;3.60;;;16.30;90.10;;;;;;1981973;29;20179;-75
2021/12/15 02:14:47;;;;;;;5.57;4.60;;;16.10;90.00;;;;;;1981051;29;20422;-76
2021/12/15 02:15:49;;;;;;;6.13;3.90;;;16.10;90.00;;;;;;1980876;28;20179;-76
2021/12/15 02:16:48;;;;;;;9.90;4.28;;;16.10;90.00;;;;;;1981640;28;20203;-76
2021/12/15 02:17:47;;;;;;;6.37;4.40;;;16.10;90.00;;;;;;1982072;28;20187;-76
2021/12/15 02:18:46;;;;;;;5.30;3.42;;;16.10;90.00;;;;;;1981835;29;20899;-76
2021/12/15 02:19:45;;;;;;;6.10;4.20;;;16.00;90.00;;;;;;1981696;28;20262;-76
2021/12/15 02:20:50;;;;;;;4.20;3.03;;;16.10;90.00;;;;;;1981946;28;20238;-76
2021/12/15 02:21:49;;;;;;;6.53;4.07;;;16.10;90.00;;;;;;1981808;28;20826;-77
2021/12/15 02:22:47;;;;;;;6.87;4.23;;;16.10;90.00;;;;;;1981713;29;20176;-76
2021/12/15 02:23:53;;;;;;;5.13;3.83;;;16.00;90.00;;;;;;1981069;29;20231;-76
2021/12/15 02:24:53;;;;;;;7.32;4.40;;;16.00;90.00;;;;;;1981198;29;20215;-76
2021/12/15 02:25:51;;;;;;;6.60;3.88;;;16.00;90.00;;;;;;1981681;29;20175;-76
2021/12/15 02:26:57;;;;;;;6.80;4.90;;;16.00;90.00;;;;;;1981670;28;20194;-76
2021/12/15 02:27:55;;;;;;;6.10;3.63;;;16.10;90.00;;;;;;1981143;29;20179;-76
2021/12/15 02:28:59;;;;;;;5.53;3.73;;;16.00;90.30;;;;;;1981151;29;20679;-76
2021/12/15 02:30:05;;;;;;;6.93;3.80;;;16.00;90.00;;;;;;1981649;28;20263;-76
2021/12/15 02:31:16;;;;;;;5.75;3.85;;;16.30;90.10;;;;;;1981897;29;20630;-76
2021/12/15 02:32:35;;;;;;;6.35;4.53;;;16.00;90.00;;;;;;1981745;28;20164;-75
2021/12/15 02:33:51;;;;;;;4.93;3.85;;;16.10;90.00;;;;;;1981880;29;20239;-76
2021/12/15 02:37:25;;;;;;;3.83;3.15;;;16.00;90.10;;;;;;1981641;29;20191;-76
2021/12/15 02:38:31;;;;;;;7.30;4.05;;;16.00;90.10;;;;;;1981703;28;20171;-76
2021/12/15 02:39:34;;;;;;;8.15;4.50;;;16.10;90.10;;;;;;1981416;29;20160;-76
2021/12/15 02:40:34;;;;;;;8.75;4.25;;;16.00;90.10;;;;;;1981351;28;20315;-76
2021/12/15 02:41:34;;;;;;;4.32;3.53;;;16.00;90.10;;;;;;1981581;28;20194;-76
2021/12/15 02:42:40;;;;;;;5.55;3.80;;;16.00;90.00;;;;;;1981541;29;20179;-75
2021/12/15 02:43:39;;;;;;;5.97;4.10;;;16.10;90.00;;;;;;1981709;28;20239;-75
2021/12/15 02:44:43;;;;;;;6.18;4.35;;;16.00;90.00;;;;;;1981620;29;20255;-76
2021/12/15 02:45:41;;;;;;;6.45;4.15;;;16.00;90.10;;;;;;1981520;29;20164;-76
2021/12/15 02:46:43;;;;;;;8.00;4.40;;;16.00;90.10;;;;;;1981380;28;20199;-76
2021/12/15 02:47:42;;;;;;;4.85;3.45;;;16.00;90.00;;;;;;1981479;28;20168;-76
2021/12/15 02:48:40;;;;;;;4.83;3.50;;;16.10;90.10;;;;;;1981525;28;20197;-76
2021/12/15 02:49:39;;;;;;;5.87;4.23;;;16.10;90.00;;;;;;1981563;28;20411;-76
2021/12/15 02:50:39;;;;;;;5.78;3.80;;;16.00;90.00;;;;;;1981602;28;20662;-76
2021/12/15 02:51:40;;;;;;;5.22;3.65;;;16.10;90.10;;;;;;1980876;29;20180;-76
2021/12/15 02:52:39;;;;;;;4.05;3.53;;;16.00;90.10;;;;;;1973384;29;20184;-76
2021/12/15 02:53:39;;;;;;;5.85;4.13;;;16.00;90.20;;;;;;1980906;29;20214;-75
2021/12/15 02:54:38;;;;;;;6.65;4.28;;;16.00;90.10;;;;;;1981724;29;20171;-75
2021/12/15 02:55:37;;;;;;;6.20;4.40;;;16.00;90.20;;;;;;1981499;29;20595;-76
2021/12/15 02:56:37;;;;;;;6.25;4.75;;;16.20;90.30;;;;;;1973134;29;20458;-75
2021/12/15 02:57:35;;;;;;;9.57;4.18;;;16.00;90.00;;;;;;1973203;29;20266;-75
2021/12/15 02:58:37;;;;;;;7.90;5.30;;;16.00;90.00;;;;;;1981325;29;20241;-75
2021/12/15 02:59:57;;;;;;;7.28;4.88;;;16.10;90.10;;;;;;1980775;29;20414;-76
2021/12/15 03:01:02;;;;;;;6.35;4.50;;;16.10;90.00;;;;;;1981051;29;20167;-75
2021/12/15 03:03:45;;;;;;;7.40;5.07;;;16.10;89.90;;;;;;1980801;29;20179;-75
2021/12/15 03:05:46;;;;;;;7.38;4.35;;;16.00;90.00;;;;;;1981568;28;20167;-74
2021/12/15 03:06:57;;;;;;;5.80;4.05;;;16.10;90.10;;;;;;1980565;29;20328;-75
2021/12/15 03:08:06;;;;;;;7.20;4.65;;;16.20;90.10;;;;;;1980135;29;20726;-75
2021/12/15 03:15:35;;;;;;;6.35;4.38;;;16.00;90.00;;;;;;1981457;29;20167;-75
2021/12/15 03:16:35;;;;;;;9.45;5.22;;;16.00;90.20;;;;;;1981284;28;20190;-76
2021/12/15 03:17:35;;;;;;;5.90;4.03;;;16.00;90.20;;;;;;1981183;29;20266;-76
2021/12/15 03:18:34;;;;;;;7.90;4.90;;;16.00;90.20;;;;;;1981313;28;20171;-76
2021/12/15 03:19:33;;;;;;;7.78;5.28;;;16.00;90.20;;;;;;1981239;28;20175;-76
2021/12/15 03:20:41;;;;;;;7.60;4.63;;;16.00;90.20;;;;;;1981404;28;20257;-76
2021/12/15 03:21:40;;;;;;;6.72;4.43;;;16.00;90.20;;;;;;1980772;29;20183;-76
2021/12/15 03:22:39;;;;;;;7.07;4.00;;;16.00;90.20;;;;;;1980779;29;20182;-76
2021/12/15 03:23:49;;;;;;;8.07;5.10;;;16.00;90.20;;;;;;1981249;29;20245;-76
2021/12/15 03:24:48;;;;;;;9.70;4.80;;;16.00;90.20;;;;;;1981314;29;20647;-76
2021/12/15 03:25:47;;;;;;;11.23;5.37;;;16.00;90.20;;;;;;1981332;28;20191;-75
2021/12/15 03:27:02;;;;;;;12.53;4.43;;;16.00;90.20;;;;;;1980497;28;20978;-76
2021/12/15 03:35:04;;;;;;;8.57;4.90;;;16.00;90.30;;;;;;1981250;29;20151;-76
2021/12/15 03:36:11;;;;;;;8.80;4.85;;;16.00;90.50;;;;;;1981405;28;20210;-76
2021/12/15 03:37:24;;;;;;;7.30;4.80;;;16.00;90.60;;;;;;1981251;28;20198;-76
2021/12/15 03:38:22;;;;;;;7.75;4.93;;;16.00;90.60;;;;;;1981222;28;20160;-75
2021/12/15 03:39:23;;;;;;;7.70;4.93;;;16.00;90.60;;;;;;1981350;29;20590;-76
2021/12/15 03:40:32;;;;;;;6.90;4.60;;;16.00;90.70;;;;;;1988344;28;20182;-75
2021/12/15 03:41:31;;;;;;;5.68;3.88;;;16.00;90.90;;;;;;1972944;29;20222;-76
2021/12/15 03:42:35;;;;;;;7.47;4.70;;;16.00;90.60;;;;;;1973030;29;20653;-76
2021/12/15 03:43:35;;;;;;;7.38;4.18;;;16.00;90.60;;;;;;1981326;28;20147;-76
2021/12/15 03:44:37;;;;;;;5.60;4.43;;;16.00;90.50;;;;;;1981253;29;20176;-75
2021/12/15 03:45:45;;;;;;;6.80;4.80;;;16.00;90.50;;;;;;1980673;29;20183;-75
2021/12/15 03:46:45;;;;;;;7.50;4.50;;;16.00;90.60;;;;;;1980668;29;20193;-76
2021/12/15 03:47:49;;;;;;;10.60;5.20;;;16.00;90.40;;;;;;1981189;29;20639;-76
2021/12/15 03:48:48;;;;;;;8.85;5.10;;;16.00;90.50;;;;;;1980694;29;20222;-76
2021/12/15 03:49:47;;;;;;;8.25;5.03;;;16.00;90.20;;;;;;1980688;29;20190;-75
2021/12/15 03:50:46;;;;;;;7.63;4.60;;;16.00;90.30;;;;;;1981105;29;20554;-75
2021/12/15 03:51:45;;;;;;;8.13;4.72;;;16.00;90.30;;;;;;1980494;29;20171;-76
2021/12/15 03:52:48;;;;;;;9.03;5.20;;;16.00;90.30;;;;;;1980542;29;20319;-76
2021/12/15 03:53:47;;;;;;;8.27;5.00;;;16.00;90.60;;;;;;1980577;29;20179;-76
2021/12/15 03:54:45;;;;;;;8.50;4.37;;;16.00;90.60;;;;;;1981214;28;20211;-76
2021/12/15 03:55:45;;;;;;;6.40;4.00;;;16.00;90.60;;;;;;1981141;28;20501;-76
2021/12/15 03:56:44;;;;;;;6.70;4.68;;;16.00;90.60;;;;;;1980506;29;20195;-76
2021/12/15 03:57:43;;;;;;;6.90;5.13;;;16.00;90.70;;;;;;1980520;29;20634;-76
2021/12/15 03:58:45;;;;;;;5.77;4.30;;;16.00;90.80;;;;;;1981163;29;20167;-76
2021/12/15 03:59:45;;;;;;;6.30;4.80;;;16.00;91.10;;;;;;1980523;29;20198;-76
2021/12/15 04:00:48;;;;;;;12.48;5.18;;;16.00;91.00;;;;;;1980504;29;20175;-76
2021/12/15 04:01:47;;;;;;;8.80;4.15;;;16.00;90.90;;;;;;1980663;29;20167;-76
2021/12/15 04:02:47;;;;;;;9.03;4.70;;;16.00;90.90;;;;;;1981215;29;20209;-75
2021/12/15 04:03:50;;;;;;;6.40;4.65;;;16.00;91.00;;;;;;1981004;28;20450;-76
2021/12/15 04:04:50;;;;;;;6.95;4.57;;;16.00;91.10;;;;;;1980518;28;20183;-76
2021/12/15 04:05:50;;;;;;;7.53;4.55;;;16.00;90.90;;;;;;1980547;29;20181;-76
2021/12/15 04:06:49;;;;;;;7.10;4.53;;;16.00;91.10;;;;;;1981099;29;20772;-76
2021/12/15 04:07:50;;;;;;;6.00;4.20;;;16.00;91.30;;;;;;1981010;28;20257;-76
2021/12/15 04:08:48;;;;;;;6.68;4.88;;;16.00;91.10;;;;;;1980659;29;20186;-76
2021/12/15 04:09:50;;;;;;;8.60;5.70;;;16.00;91.10;;;;;;1980495;29;20183;-76
2021/12/15 04:10:49;;;;;;;5.65;4.28;;;16.10;90.90;;;;;;1980649;29;20207;-76
2021/12/15 04:11:49;;;;;;;5.72;4.57;;;16.00;90.40;;;;;;1980562;29;20742;-76
2021/12/15 04:12:48;;;;;;;7.28;4.57;;;16.00;90.90;;;;;;1981073;29;20175;-76
2021/12/15 04:13:48;;;;;;;9.00;4.03;;;16.00;90.60;;;;;;1981197;28;20638;-76
2021/12/15 04:14:55;;;;;;;7.22;4.82;;;16.00;90.70;;;;;;1980521;29;20179;-77
2021/12/15 04:15:57;;;;;;;5.75;4.78;;;16.00;90.90;;;;;;1973478;29;20175;-76
2021/12/15 04:17:02;;;;;;;9.27;5.38;;;16.00;91.10;;;;;;1972658;29;20188;-76
2021/12/15 04:18:03;;;;;;;5.97;4.22;;;16.00;90.70;;;;;;1980540;29;20155;-76
2021/12/15 04:19:09;;;;;;;7.03;4.22;;;16.00;90.60;;;;;;1981117;28;20171;-76
2021/12/15 04:20:13;;;;;;;5.93;4.60;;;16.00;90.90;;;;;;1981090;28;20174;-76
2021/12/15 04:21:11;;;;;;;5.97;4.55;;;16.00;90.70;;;;;;1981222;28;20499;-75
2021/12/15 04:22:10;;;;;;;7.50;4.50;;;16.00;90.90;;;;;;1981106;28;20222;-76
2021/12/15 04:23:12;;;;;;;6.67;4.70;;;16.00;90.20;;;;;;1980401;29;20183;-75
2021/12/15 04:24:16;;;;;;;6.40;4.63;;;16.00;90.40;;;;;;1980578;29;20242;-76
2021/12/15 04:25:21;;;;;;;6.32;4.32;;;16.10;90.00;;;;;;1980934;28;20187;-76
2021/12/15 04:26:21;;;;;;;5.68;4.00;;;16.00;89.50;;;;;;1980240;29;20203;-75
2021/12/15 04:27:22;;;;;;;7.88;4.72;;;16.00;89.20;;;;;;1980460;29;20183;-75
2021/12/15 04:28:27;;;;;;;6.97;4.65;;;16.00;89.30;;;;;;1981054;29;20214;-76
2021/12/15 04:29:28;;;;;;;6.25;4.45;;;16.00;89.90;;;;;;1981004;29;20175;-75
2021/12/15 04:30:29;;;;;;;7.15;4.72;;;16.00;91.00;;;;;;1980895;29;20582;-76
2021/12/15 04:31:31;;;;;;;8.50;4.95;;;16.00;89.90;;;;;;1981038;28;20187;-75
2021/12/15 04:32:34;;;;;;;8.35;4.70;;;16.00;90.00;;;;;;1980360;29;20722;-76
2021/12/15 04:33:44;;;;;;;5.30;3.60;;;16.00;90.30;;;;;;1980601;29;20171;-75
2021/12/15 04:34:43;;;;;;;5.55;3.78;;;16.00;90.20;;;;;;1981172;28;20690;-76
2021/12/15 04:35:42;;;;;;;6.53;4.43;;;16.00;90.70;;;;;;1981077;28;20319;-76
2021/12/15 04:36:44;;;;;;;9.02;4.30;;;16.00;90.40;;;;;;1980916;28;20195;-75
2021/12/15 04:37:45;;;;;;;6.75;5.05;;;16.00;89.60;;;;;;1980401;29;20215;-75
2021/12/15 04:38:45;;;;;;;7.18;4.50;;;16.00;89.60;;;;;;1980971;28;20171;-76
2021/12/15 04:39:46;;;;;;;7.65;4.90;;;16.10;90.00;;;;;;1982498;28;20176;-76
2021/12/15 04:40:44;;;;;;;7.88;4.75;;;16.00;90.30;;;;;;1982334;28;20258;-75
2021/12/15 04:41:48;;;;;;;8.33;4.90;;;16.00;90.20;;;;;;1982640;29;20171;-76
2021/12/15 04:42:47;;;;;;;6.22;4.38;;;16.00;90.20;;;;;;1981834;28;20179;-76
2021/12/15 04:43:56;;;;;;;7.95;4.80;;;16.10;90.20;;;;;;1981919;29;20223;-76
2021/12/15 04:44:56;;;;;;;7.97;4.25;;;16.00;89.40;;;;;;1982757;28;20170;-76
2021/12/15 04:45:55;;;;;;;9.35;4.68;;;16.00;89.80;;;;;;1981751;29;20186;-76
2021/12/15 04:47:00;;;;;;;7.90;4.37;;;16.00;89.90;;;;;;1982245;28;20183;-75
2021/12/15 04:48:00;;;;;;;8.38;5.50;;;16.00;90.20;;;;;;1982534;28;20164;-76
2021/12/15 04:49:00;;;;;;;7.65;5.18;;;16.00;90.40;;;;;;1982413;29;20190;-76
2021/12/15 04:49:59;;;;;;;4.82;4.00;;;16.00;90.40;;;;;;1982376;29;20186;-75
2021/12/15 04:50:57;;;;;;;8.90;4.77;;;16.00;90.70;;;;;;1982408;28;20542;-76
2021/12/15 04:51:56;;;;;;;7.50;4.67;;;16.00;90.20;;;;;;1982411;29;20409;-76
2021/12/15 04:52:59;;;;;;;8.70;4.80;;;16.20;90.00;;;;;;1982427;28;20513;-76
2021/12/15 04:53:58;;;;;;;6.45;4.25;;;16.00;90.80;;;;;;1982316;28;20419;-75
2021/12/15 04:54:59;;;;;;;8.43;4.88;;;16.00;90.50;;;;;;1982425;28;20183;-76
2021/12/15 04:55:58;;;;;;;7.80;4.47;;;16.00;90.80;;;;;;1982295;28;20171;-76
2021/12/15 04:56:57;;;;;;;7.37;4.67;;;16.00;90.10;;;;;;1982353;29;20175;-76
2021/12/15 04:57:58;;;;;;;6.30;4.43;;;16.00;89.20;;;;;;1981671;29;20234;-75
2021/12/15 04:58:57;;;;;;;8.65;4.50;;;16.00;88.60;;;;;;1981894;29;20669;-76
2021/12/15 04:59:56;;;;;;;6.97;4.75;;;16.00;89.10;;;;;;1982279;29;20211;-76
2021/12/15 05:00:59;;;;;;;7.00;4.50;;;16.00;89.40;;;;;;1982403;28;20283;-76
2021/12/15 05:01:58;;;;;;;10.18;5.90;;;16.00;89.40;;;;;;1982273;28;20203;-76
2021/12/15 05:02:58;;;;;;;5.80;4.43;;;16.00;89.70;;;;;;1982288;29;20186;-76
2021/12/15 05:03:57;;;;;;;6.25;4.20;;;16.00;88.50;;;;;;1982287;28;20178;-76
2021/12/15 05:04:55;;;;;;;5.47;4.17;;;16.00;88.90;;;;;;1982401;29;20176;-76
2021/12/15 05:05:54;;;;;;;8.77;5.17;;;16.00;88.40;;;;;;1982157;28;20234;-75
2021/12/15 05:06:53;;;;;;;6.70;4.43;;;16.00;89.00;;;;;;1982322;28;20194;-75
2021/12/15 05:07:53;;;;;;;7.70;4.00;;;16.00;88.40;;;;;;1982281;28;20180;-75
2021/12/15 05:08:52;;;;;;;6.80;4.57;;;16.00;88.00;;;;;;1982249;28;20206;-75
2021/12/15 05:09:51;;;;;;;6.03;4.10;;;16.00;88.70;;;;;;1982371;29;20187;-75
2021/12/15 05:10:54;;;;;;;6.20;4.20;;;16.00;88.90;;;;;;1982291;29;20414;-75
2021/12/15 05:11:54;;;;;;;7.80;4.40;;;16.00;90.20;;;;;;1982309;28;20589;-75
2021/12/15 05:12:53;;;;;;;7.43;4.43;;;16.10;88.80;;;;;;1982241;28;20182;-76
2021/12/15 05:13:52;;;;;;;5.40;4.63;;;16.00;88.10;;;;;;1982386;28;20602;-75
2021/12/15 05:14:51;;;;;;;7.68;5.20;;;16.00;88.20;;;;;;1982337;29;20477;-75
2021/12/15 05:15:50;;;;;;;5.40;4.33;;;16.00;88.60;;;;;;1982534;28;20179;-75
2021/12/15 05:16:52;;;;;;;9.67;4.80;;;16.10;88.20;;;;;;1982297;29;20195;-76
2021/12/15 05:17:50;;;;;;;5.90;4.35;;;16.00;88.90;;;;;;1982378;29;20186;-75
2021/12/15 05:18:49;;;;;;;7.10;3.80;;;16.10;89.00;;;;;;1982112;28;20185;-75
2021/12/15 05:19:48;;;;;;;8.90;4.60;;;16.00;88.70;;;;;;1982323;28;20654;-75
2021/12/15 05:20:51;;;;;;;7.00;4.57;;;16.00;88.50;;;;;;1982173;28;20179;-75
2021/12/15 05:21:51;;;;;;;7.90;4.43;;;16.00;88.80;;;;;;1982276;28;20396;-75
2021/12/15 05:22:52;;;;;;;7.20;4.68;;;16.00;88.00;;;;;;1982290;28;20167;-75
2021/12/15 05:23:57;;;;;;;6.60;4.20;;;16.00;88.10;;;;;;1982138;28;20167;-75
2021/12/15 05:24:56;;;;;;;10.32;5.18;;;16.00;87.20;;;;;;1982450;28;20250;-76
2021/12/15 05:25:56;;;;;;;8.13;4.70;;;16.00;87.90;;;;;;1990742;29;20201;-74
2021/12/15 05:27:05;;;;;;;5.43;3.70;;;16.00;88.90;;;;;;1991199;28;20199;-74
2021/12/15 05:28:04;;;;;;;4.88;4.07;;;16.00;88.60;;;;;;1991207;29;20163;-74
2021/12/15 05:29:02;;;;;;;6.80;5.10;;;16.00;88.00;;;;;;1990723;29;20180;-73
2021/12/15 05:30:01;;;;;;;4.23;3.30;;;16.00;89.70;;;;;;1991130;28;20470;-74
2021/12/15 05:31:00;;;;;;;6.37;4.17;;;16.00;89.70;;;;;;1991074;29;20242;-73
2021/12/15 05:32:00;;;;;;;6.83;4.03;;;16.00;88.80;;;;;;1990982;28;20171;-74
2021/12/15 05:32:58;;;;;;;7.50;4.28;;;16.00;89.00;;;;;;1991153;29;20166;-72
2021/12/15 05:33:57;;;;;;;8.90;4.90;;;16.00;89.50;;;;;;1991218;29;20181;-74
2021/12/15 05:34:58;;;;;;;7.40;4.53;;;16.00;88.40;;;;;;1991403;29;20242;-73
2021/12/15 05:35:58;;;;;;;7.78;4.65;;;16.00;88.50;;;;;;1990581;29;20175;-73
2021/12/15 05:36:58;;;;;;;8.70;4.90;;;16.00;88.70;;;;;;1991116;29;20199;-73
2021/12/15 05:37:59;;;;;;;6.97;4.53;;;16.00;89.50;;;;;;1991107;28;20181;-74
2021/12/15 05:38:58;;;;;;;7.15;4.72;;;16.00;90.00;;;;;;1991366;28;20191;-74
2021/12/15 05:39:57;;;;;;;9.60;4.30;;;16.00;89.70;;;;;;1991597;28;20248;-74
2021/12/15 05:40:59;;;;;;;8.40;4.90;;;;;;;;;;1991627;28;20207;-74
2021/12/15 05:41:59;;;;;;;7.53;4.30;;;16.50;86.50;;;;;;1991239;28;20202;-74
2021/12/15 05:42:58;;;;;;;8.15;4.30;;;16.20;86.50;;;;;;1991065;28;20203;-74
2021/12/15 05:43:57;;;;;;;6.07;4.20;;;16.00;87.40;;;;;;1991233;28;20194;-74
2021/12/15 05:44:55;;;;;;;6.80;4.43;;;16.00;87.40;;;;;;1989394;29;20191;-76
2021/12/15 05:45:54;;;;;;;9.60;4.60;;;16.00;88.20;;;;;;1985500;28;20171;-73
2021/12/15 05:46:55;;;;;;;8.40;4.60;;;16.00;87.20;;;;;;1990740;28;20441;-75
2021/12/15 05:47:55;;;;;;;5.60;4.13;;;16.00;87.00;;;;;;1990722;28;20202;-74
2021/12/15 05:48:54;;;;;;;7.18;4.60;;;16.00;86.90;;;;;;1991105;28;20210;-74